sensor_id;sensor_type;location;lat;lon;timestamp;P1;durP1;ratioP1;P2;durP2;ratioP2
61435;SDS011;47304;47.456;19.160;2023-02-18T00:00:26;15.70;;;8.60;;
61435;SDS011;47304;47.456;19.160;2023-02-18T00:02:53;17.50;;;9.50;;
61435;SDS011;47304;47.456;19.160;2023-02-18T00:05:20;16.70;;;9.20;;
61435;SDS011;47304;47.456;19.160;2023-02-18T00:07:47;14.10;;;7.70;;
61435;SDS011;47304;47.456;19.160;2023-02-18T00:10:14;16.00;;;7.90;;
61435;SDS011;47304;47.456;19.160;2023-02-18T00:12:41;12.70;;;6.90;;
61435;SDS011;47304;47.456;19.160;2023-02-18T00:15:08;11.40;;;6.40;;
61435;SDS011;47304;47.456;19.160;2023-02-18T00:17:35;14.50;;;6.70;;
61435;SDS011;47304;47.456;19.160;2023-02-18T00:20:02;12.20;;;6.50;;
61435;SDS011;47304;47.456;19.160;2023-02-18T00:22:30;12.90;;;5.80;;
61435;SDS011;47304;47.456;19.160;2023-02-18T00:24:56;11.60;;;5.90;;
61435;SDS011;47304;47.456;19.160;2023-02-18T00:27:23;11.00;;;5.40;;
61435;SDS011;47304;47.456;19.160;2023-02-18T00:29:49;10.60;;;5.30;;
61435;SDS011;47304;47.456;19.160;2023-02-18T00:32:16;10.90;;;5.20;;
61435;SDS011;47304;47.456;19.160;2023-02-18T00:34:42;10.50;;;5.50;;
61435;SDS011;47304;47.456;19.160;2023-02-18T00:37:09;11.70;;;5.70;;
61435;SDS011;47304;47.456;19.160;2023-02-18T00:39:36;11.60;;;5.00;;
61435;SDS011;47304;47.456;19.160;2023-02-18T00:42:02;10.80;;;4.90;;
61435;SDS011;47304;47.456;19.160;2023-02-18T00:44:29;10.00;;;4.90;;
61435;SDS011;47304;47.456;19.160;2023-02-18T00:46:55;8.40;;;4.00;;
61435;SDS011;47304;47.456;19.160;2023-02-18T00:49:22;10.60;;;5.20;;
61435;SDS011;47304;47.456;19.160;2023-02-18T00:51:49;12.00;;;4.40;;
61435;SDS011;47304;47.456;19.160;2023-02-18T00:54:15;9.20;;;4.40;;
61435;SDS011;47304;47.456;19.160;2023-02-18T00:56:42;8.30;;;3.90;;
61435;SDS011;47304;47.456;19.160;2023-02-18T00:59:08;9.90;;;4.60;;
61435;SDS011;47304;47.456;19.160;2023-02-18T01:01:35;7.20;;;3.00;;
61435;SDS011;47304;47.456;19.160;2023-02-18T01:04:02;10.40;;;4.40;;
61435;SDS011;47304;47.456;19.160;2023-02-18T01:06:29;7.90;;;3.50;;
61435;SDS011;47304;47.456;19.160;2023-02-18T01:08:55;10.70;;;3.60;;
61435;SDS011;47304;47.456;19.160;2023-02-18T01:11:22;7.20;;;3.30;;
61435;SDS011;47304;47.456;19.160;2023-02-18T01:13:49;8.50;;;3.20;;
61435;SDS011;47304;47.456;19.160;2023-02-18T01:16:15;8.30;;;3.00;;
61435;SDS011;47304;47.456;19.160;2023-02-18T01:18:42;7.20;;;3.30;;
61435;SDS011;47304;47.456;19.160;2023-02-18T01:21:09;6.30;;;2.90;;
61435;SDS011;47304;47.456;19.160;2023-02-18T01:23:36;7.40;;;3.00;;
61435;SDS011;47304;47.456;19.160;2023-02-18T01:26:04;8.60;;;3.10;;
61435;SDS011;47304;47.456;19.160;2023-02-18T01:28:31;8.20;;;3.30;;
61435;SDS011;47304;47.456;19.160;2023-02-18T01:31:02;8.20;;;3.10;;
61435;SDS011;47304;47.456;19.160;2023-02-18T01:33:30;6.90;;;2.60;;
61435;SDS011;47304;47.456;19.160;2023-02-18T01:35:57;6.80;;;2.80;;
61435;SDS011;47304;47.456;19.160;2023-02-18T01:38:23;7.00;;;2.90;;
61435;SDS011;47304;47.456;19.160;2023-02-18T01:40:50;5.10;;;2.20;;
61435;SDS011;47304;47.456;19.160;2023-02-18T01:43:18;5.90;;;2.60;;
61435;SDS011;47304;47.456;19.160;2023-02-18T01:45:49;6.10;;;2.30;;
61435;SDS011;47304;47.456;19.160;2023-02-18T01:48:28;7.70;;;3.10;;
61435;SDS011;47304;47.456;19.160;2023-02-18T01:51:15;5.80;;;2.30;;
61435;SDS011;47304;47.456;19.160;2023-02-18T01:53:51;8.30;;;3.80;;
61435;SDS011;47304;47.456;19.160;2023-02-18T01:56:32;6.80;;;2.60;;
61435;SDS011;47304;47.456;19.160;2023-02-18T01:59:04;6.20;;;2.40;;
61435;SDS011;47304;47.456;19.160;2023-02-18T02:01:35;7.90;;;2.20;;
61435;SDS011;47304;47.456;19.160;2023-02-18T02:04:02;4.80;;;2.00;;
61435;SDS011;47304;47.456;19.160;2023-02-18T02:06:28;5.80;;;2.00;;
61435;SDS011;47304;47.456;19.160;2023-02-18T02:08:56;6.30;;;2.00;;
61435;SDS011;47304;47.456;19.160;2023-02-18T02:19:54;4.50;;;1.40;;
61435;SDS011;47304;47.456;19.160;2023-02-18T02:22:50;2.30;;;1.20;;
61435;SDS011;47304;47.456;19.160;2023-02-18T02:26:03;5.70;;;1.50;;
61435;SDS011;47304;47.456;19.160;2023-02-18T02:31:24;6.20;;;1.20;;
61435;SDS011;47304;47.456;19.160;2023-02-18T02:39:33;3.80;;;1.70;;
61435;SDS011;47304;47.456;19.160;2023-02-18T02:42:12;2.70;;;1.40;;
61435;SDS011;47304;47.456;19.160;2023-02-18T02:44:55;3.10;;;1.40;;
61435;SDS011;47304;47.456;19.160;2023-02-18T02:47:28;4.30;;;1.90;;
61435;SDS011;47304;47.456;19.160;2023-02-18T02:52:52;2.80;;;1.40;;
61435;SDS011;47304;47.456;19.160;2023-02-18T02:55:25;3.70;;;1.60;;
61435;SDS011;47304;47.456;19.160;2023-02-18T02:57:52;2.40;;;1.30;;
61435;SDS011;47304;47.456;19.160;2023-02-18T03:00:22;3.20;;;1.50;;
61435;SDS011;47304;47.456;19.160;2023-02-18T03:06:05;2.70;;;1.20;;
61435;SDS011;47304;47.456;19.160;2023-02-18T03:11:27;3.90;;;1.60;;
61435;SDS011;47304;47.456;19.160;2023-02-18T03:16:45;3.10;;;1.40;;
61435;SDS011;47304;47.456;19.160;2023-02-18T03:24:31;2.20;;;1.30;;
61435;SDS011;47304;47.456;19.160;2023-02-18T03:27:03;2.50;;;1.30;;
61435;SDS011;47304;47.456;19.160;2023-02-18T03:29:35;3.10;;;1.50;;
61435;SDS011;47304;47.456;19.160;2023-02-18T03:32:03;4.10;;;1.80;;
61435;SDS011;47304;47.456;19.160;2023-02-18T03:34:34;3.40;;;1.40;;
61435;SDS011;47304;47.456;19.160;2023-02-18T03:37:05;2.10;;;1.30;;
61435;SDS011;47304;47.456;19.160;2023-02-18T03:39:34;3.30;;;1.70;;
61435;SDS011;47304;47.456;19.160;2023-02-18T03:42:03;3.50;;;1.80;;
61435;SDS011;47304;47.456;19.160;2023-02-18T03:44:30;2.90;;;1.40;;
61435;SDS011;47304;47.456;19.160;2023-02-18T03:46:56;5.40;;;1.60;;
61435;SDS011;47304;47.456;19.160;2023-02-18T03:49:23;3.70;;;1.30;;
61435;SDS011;47304;47.456;19.160;2023-02-18T03:51:49;3.00;;;1.40;;
61435;SDS011;47304;47.456;19.160;2023-02-18T03:54:16;3.70;;;1.40;;
61435;SDS011;47304;47.456;19.160;2023-02-18T03:56:43;2.80;;;1.40;;
61435;SDS011;47304;47.456;19.160;2023-02-18T03:59:10;2.40;;;1.20;;
61435;SDS011;47304;47.456;19.160;2023-02-18T04:01:37;2.60;;;1.50;;
61435;SDS011;47304;47.456;19.160;2023-02-18T04:04:05;2.50;;;1.50;;
61435;SDS011;47304;47.456;19.160;2023-02-18T04:06:31;3.30;;;1.40;;
61435;SDS011;47304;47.456;19.160;2023-02-18T04:08:58;3.60;;;1.40;;
61435;SDS011;47304;47.456;19.160;2023-02-18T04:11:25;4.60;;;1.50;;
61435;SDS011;47304;47.456;19.160;2023-02-18T04:13:51;2.40;;;1.20;;
61435;SDS011;47304;47.456;19.160;2023-02-18T04:16:18;2.70;;;1.40;;
61435;SDS011;47304;47.456;19.160;2023-02-18T04:18:44;2.70;;;1.40;;
61435;SDS011;47304;47.456;19.160;2023-02-18T04:21:11;3.20;;;1.50;;
61435;SDS011;47304;47.456;19.160;2023-02-18T04:23:37;2.20;;;1.40;;
61435;SDS011;47304;47.456;19.160;2023-02-18T04:26:04;1.70;;;1.20;;
61435;SDS011;47304;47.456;19.160;2023-02-18T04:28:31;2.90;;;1.30;;
61435;SDS011;47304;47.456;19.160;2023-02-18T04:30:57;3.40;;;1.30;;
61435;SDS011;47304;47.456;19.160;2023-02-18T04:33:24;3.40;;;1.50;;
61435;SDS011;47304;47.456;19.160;2023-02-18T04:35:50;3.80;;;1.50;;
61435;SDS011;47304;47.456;19.160;2023-02-18T04:38:17;1.90;;;1.40;;
61435;SDS011;47304;47.456;19.160;2023-02-18T04:40:43;3.50;;;1.60;;
61435;SDS011;47304;47.456;19.160;2023-02-18T04:43:10;2.70;;;1.30;;
61435;SDS011;47304;47.456;19.160;2023-02-18T04:45:36;2.10;;;1.20;;
61435;SDS011;47304;47.456;19.160;2023-02-18T04:48:03;3.00;;;1.70;;
61435;SDS011;47304;47.456;19.160;2023-02-18T04:50:30;3.30;;;1.50;;
61435;SDS011;47304;47.456;19.160;2023-02-18T04:52:57;2.80;;;1.40;;
61435;SDS011;47304;47.456;19.160;2023-02-18T04:55:23;2.80;;;1.30;;
61435;SDS011;47304;47.456;19.160;2023-02-18T04:57:50;3.60;;;1.50;;
61435;SDS011;47304;47.456;19.160;2023-02-18T05:00:17;3.90;;;1.70;;
61435;SDS011;47304;47.456;19.160;2023-02-18T05:02:45;3.50;;;1.70;;
61435;SDS011;47304;47.456;19.160;2023-02-18T05:05:12;5.70;;;1.70;;
61435;SDS011;47304;47.456;19.160;2023-02-18T05:07:40;3.50;;;1.30;;
61435;SDS011;47304;47.456;19.160;2023-02-18T05:10:07;2.50;;;1.30;;
61435;SDS011;47304;47.456;19.160;2023-02-18T05:12:35;2.70;;;1.30;;
61435;SDS011;47304;47.456;19.160;2023-02-18T05:15:02;3.30;;;1.60;;
61435;SDS011;47304;47.456;19.160;2023-02-18T05:17:29;2.20;;;1.10;;
61435;SDS011;47304;47.456;19.160;2023-02-18T05:19:55;4.40;;;1.60;;
61435;SDS011;47304;47.456;19.160;2023-02-18T05:22:22;4.80;;;1.30;;
61435;SDS011;47304;47.456;19.160;2023-02-18T05:24:49;3.00;;;1.50;;
61435;SDS011;47304;47.456;19.160;2023-02-18T05:27:15;2.20;;;1.40;;
61435;SDS011;47304;47.456;19.160;2023-02-18T05:29:42;5.20;;;1.50;;
61435;SDS011;47304;47.456;19.160;2023-02-18T05:32:08;2.90;;;1.40;;
61435;SDS011;47304;47.456;19.160;2023-02-18T05:34:35;2.80;;;1.40;;
61435;SDS011;47304;47.456;19.160;2023-02-18T05:37:01;3.30;;;1.50;;
61435;SDS011;47304;47.456;19.160;2023-02-18T05:39:28;3.70;;;1.70;;
61435;SDS011;47304;47.456;19.160;2023-02-18T05:41:54;5.80;;;1.50;;
61435;SDS011;47304;47.456;19.160;2023-02-18T05:44:21;3.50;;;1.40;;
61435;SDS011;47304;47.456;19.160;2023-02-18T05:46:48;3.30;;;1.30;;
61435;SDS011;47304;47.456;19.160;2023-02-18T05:49:14;2.60;;;1.30;;
61435;SDS011;47304;47.456;19.160;2023-02-18T05:51:41;4.10;;;1.50;;
61435;SDS011;47304;47.456;19.160;2023-02-18T05:54:07;2.50;;;1.40;;
61435;SDS011;47304;47.456;19.160;2023-02-18T05:56:34;4.60;;;1.70;;
61435;SDS011;47304;47.456;19.160;2023-02-18T05:59:00;4.70;;;1.70;;
61435;SDS011;47304;47.456;19.160;2023-02-18T06:01:27;4.90;;;1.80;;
61435;SDS011;47304;47.456;19.160;2023-02-18T06:03:53;3.10;;;1.50;;
61435;SDS011;47304;47.456;19.160;2023-02-18T06:06:20;4.80;;;2.20;;
61435;SDS011;47304;47.456;19.160;2023-02-18T06:08:47;4.10;;;1.80;;
61435;SDS011;47304;47.456;19.160;2023-02-18T06:11:13;4.20;;;1.60;;
61435;SDS011;47304;47.456;19.160;2023-02-18T06:13:40;4.90;;;1.70;;
61435;SDS011;47304;47.456;19.160;2023-02-18T06:16:06;5.20;;;1.80;;
61435;SDS011;47304;47.456;19.160;2023-02-18T06:18:33;3.80;;;1.60;;
61435;SDS011;47304;47.456;19.160;2023-02-18T06:21:00;3.50;;;1.60;;
61435;SDS011;47304;47.456;19.160;2023-02-18T06:23:26;4.90;;;1.60;;
61435;SDS011;47304;47.456;19.160;2023-02-18T06:25:53;4.00;;;1.60;;
61435;SDS011;47304;47.456;19.160;2023-02-18T06:28:20;4.10;;;1.90;;
61435;SDS011;47304;47.456;19.160;2023-02-18T06:30:46;3.40;;;1.60;;
61435;SDS011;47304;47.456;19.160;2023-02-18T06:33:13;2.40;;;1.20;;
61435;SDS011;47304;47.456;19.160;2023-02-18T06:35:40;2.80;;;1.40;;
61435;SDS011;47304;47.456;19.160;2023-02-18T06:38:07;3.30;;;1.40;;
61435;SDS011;47304;47.456;19.160;2023-02-18T06:40:33;2.50;;;1.40;;
61435;SDS011;47304;47.456;19.160;2023-02-18T06:43:00;1.90;;;1.30;;
61435;SDS011;47304;47.456;19.160;2023-02-18T06:45:26;3.80;;;1.60;;
61435;SDS011;47304;47.456;19.160;2023-02-18T06:47:53;2.10;;;1.20;;
61435;SDS011;47304;47.456;19.160;2023-02-18T06:50:19;2.00;;;1.30;;
61435;SDS011;47304;47.456;19.160;2023-02-18T06:52:46;2.90;;;1.40;;
61435;SDS011;47304;47.456;19.160;2023-02-18T06:55:12;4.70;;;1.60;;
61435;SDS011;47304;47.456;19.160;2023-02-18T06:57:39;2.90;;;1.30;;
61435;SDS011;47304;47.456;19.160;2023-02-18T07:00:06;3.10;;;1.40;;
61435;SDS011;47304;47.456;19.160;2023-02-18T07:02:33;1.70;;;1.20;;
61435;SDS011;47304;47.456;19.160;2023-02-18T07:05:00;2.00;;;1.20;;
61435;SDS011;47304;47.456;19.160;2023-02-18T07:07:26;3.40;;;1.40;;
61435;SDS011;47304;47.456;19.160;2023-02-18T07:09:53;3.60;;;1.40;;
61435;SDS011;47304;47.456;19.160;2023-02-18T07:12:19;2.00;;;1.30;;
61435;SDS011;47304;47.456;19.160;2023-02-18T07:14:46;3.50;;;1.30;;
61435;SDS011;47304;47.456;19.160;2023-02-18T07:17:12;1.70;;;1.20;;
61435;SDS011;47304;47.456;19.160;2023-02-18T07:19:39;4.80;;;1.40;;
61435;SDS011;47304;47.456;19.160;2023-02-18T07:22:06;2.90;;;1.50;;
61435;SDS011;47304;47.456;19.160;2023-02-18T07:24:32;3.40;;;1.60;;
61435;SDS011;47304;47.456;19.160;2023-02-18T07:26:59;3.10;;;1.50;;
61435;SDS011;47304;47.456;19.160;2023-02-18T07:29:25;3.50;;;1.60;;
61435;SDS011;47304;47.456;19.160;2023-02-18T07:31:52;3.90;;;1.60;;
61435;SDS011;47304;47.456;19.160;2023-02-18T07:34:19;3.30;;;1.50;;
61435;SDS011;47304;47.456;19.160;2023-02-18T07:36:45;3.80;;;1.40;;
61435;SDS011;47304;47.456;19.160;2023-02-18T07:39:12;2.90;;;1.60;;
61435;SDS011;47304;47.456;19.160;2023-02-18T07:41:39;3.90;;;1.80;;
61435;SDS011;47304;47.456;19.160;2023-02-18T07:44:05;3.80;;;1.60;;
61435;SDS011;47304;47.456;19.160;2023-02-18T07:46:32;3.80;;;1.60;;
61435;SDS011;47304;47.456;19.160;2023-02-18T07:48:58;3.40;;;1.40;;
61435;SDS011;47304;47.456;19.160;2023-02-18T07:51:25;4.60;;;1.50;;
61435;SDS011;47304;47.456;19.160;2023-02-18T07:53:51;3.50;;;1.70;;
61435;SDS011;47304;47.456;19.160;2023-02-18T07:56:18;4.30;;;1.60;;
61435;SDS011;47304;47.456;19.160;2023-02-18T07:58:44;3.00;;;1.60;;
61435;SDS011;47304;47.456;19.160;2023-02-18T08:01:11;3.80;;;1.70;;
61435;SDS011;47304;47.456;19.160;2023-02-18T08:03:40;2.70;;;1.50;;
61435;SDS011;47304;47.456;19.160;2023-02-18T08:06:07;4.30;;;1.80;;
61435;SDS011;47304;47.456;19.160;2023-02-18T08:08:34;4.00;;;1.60;;
61435;SDS011;47304;47.456;19.160;2023-02-18T08:11:02;3.10;;;1.30;;
61435;SDS011;47304;47.456;19.160;2023-02-18T08:13:43;5.70;;;2.00;;
61435;SDS011;47304;47.456;19.160;2023-02-18T08:16:12;3.80;;;1.40;;
61435;SDS011;47304;47.456;19.160;2023-02-18T08:18:39;2.50;;;1.30;;
61435;SDS011;47304;47.456;19.160;2023-02-18T08:21:06;3.20;;;1.40;;
61435;SDS011;47304;47.456;19.160;2023-02-18T08:23:32;4.00;;;1.60;;
61435;SDS011;47304;47.456;19.160;2023-02-18T08:25:59;2.90;;;1.50;;
61435;SDS011;47304;47.456;19.160;2023-02-18T08:28:26;4.20;;;1.60;;
61435;SDS011;47304;47.456;19.160;2023-02-18T08:30:53;1.40;;;1.30;;
61435;SDS011;47304;47.456;19.160;2023-02-18T08:33:19;3.00;;;1.30;;
61435;SDS011;47304;47.456;19.160;2023-02-18T08:35:47;2.80;;;1.30;;
61435;SDS011;47304;47.456;19.160;2023-02-18T08:38:14;2.90;;;1.20;;
61435;SDS011;47304;47.456;19.160;2023-02-18T08:40:41;2.20;;;1.10;;
61435;SDS011;47304;47.456;19.160;2023-02-18T08:43:08;1.90;;;1.20;;
61435;SDS011;47304;47.456;19.160;2023-02-18T08:45:36;1.90;;;1.30;;
61435;SDS011;47304;47.456;19.160;2023-02-18T08:48:06;2.50;;;1.20;;
61435;SDS011;47304;47.456;19.160;2023-02-18T08:50:45;2.40;;;1.20;;
61435;SDS011;47304;47.456;19.160;2023-02-18T08:53:12;3.60;;;1.50;;
61435;SDS011;47304;47.456;19.160;2023-02-18T08:55:39;2.40;;;1.30;;
61435;SDS011;47304;47.456;19.160;2023-02-18T08:58:06;2.90;;;1.30;;
61435;SDS011;47304;47.456;19.160;2023-02-18T09:00:33;2.80;;;1.20;;
61435;SDS011;47304;47.456;19.160;2023-02-18T09:03:00;3.20;;;1.40;;
61435;SDS011;47304;47.456;19.160;2023-02-18T09:05:27;3.80;;;1.30;;
61435;SDS011;47304;47.456;19.160;2023-02-18T09:07:53;1.60;;;1.20;;
61435;SDS011;47304;47.456;19.160;2023-02-18T09:10:20;2.60;;;1.20;;
61435;SDS011;47304;47.456;19.160;2023-02-18T09:12:47;2.00;;;1.20;;
61435;SDS011;47304;47.456;19.160;2023-02-18T09:15:14;4.00;;;1.60;;
61435;SDS011;47304;47.456;19.160;2023-02-18T09:17:41;4.20;;;1.70;;
61435;SDS011;47304;47.456;19.160;2023-02-18T09:20:08;2.30;;;1.20;;
61435;SDS011;47304;47.456;19.160;2023-02-18T09:22:34;3.80;;;1.60;;
61435;SDS011;47304;47.456;19.160;2023-02-18T09:25:01;2.70;;;1.50;;
61435;SDS011;47304;47.456;19.160;2023-02-18T09:27:28;3.10;;;1.80;;
61435;SDS011;47304;47.456;19.160;2023-02-18T09:29:55;2.50;;;1.20;;
61435;SDS011;47304;47.456;19.160;2023-02-18T09:32:21;3.70;;;1.60;;
61435;SDS011;47304;47.456;19.160;2023-02-18T09:35:00;4.60;;;1.90;;
61435;SDS011;47304;47.456;19.160;2023-02-18T09:37:27;3.10;;;1.50;;
61435;SDS011;47304;47.456;19.160;2023-02-18T09:39:54;2.10;;;1.30;;
61435;SDS011;47304;47.456;19.160;2023-02-18T09:42:22;2.20;;;1.20;;
61435;SDS011;47304;47.456;19.160;2023-02-18T09:44:53;3.50;;;1.50;;
61435;SDS011;47304;47.456;19.160;2023-02-18T09:52:36;3.70;;;1.60;;
61435;SDS011;47304;47.456;19.160;2023-02-18T09:57:51;3.90;;;1.60;;
61435;SDS011;47304;47.456;19.160;2023-02-18T10:02:54;5.00;;;2.00;;
61435;SDS011;47304;47.456;19.160;2023-02-18T10:05:24;3.30;;;1.70;;
61435;SDS011;47304;47.456;19.160;2023-02-18T10:07:54;3.50;;;1.50;;
61435;SDS011;47304;47.456;19.160;2023-02-18T10:10:37;3.60;;;1.70;;
61435;SDS011;47304;47.456;19.160;2023-02-18T10:13:11;6.20;;;2.00;;
61435;SDS011;47304;47.456;19.160;2023-02-18T10:15:40;3.70;;;1.60;;
61435;SDS011;47304;47.456;19.160;2023-02-18T10:18:15;3.00;;;1.20;;
61435;SDS011;47304;47.456;19.160;2023-02-18T10:20:47;2.20;;;1.20;;
61435;SDS011;47304;47.456;19.160;2023-02-18T10:23:15;5.00;;;1.80;;
61435;SDS011;47304;47.456;19.160;2023-02-18T10:25:45;3.90;;;1.50;;
61435;SDS011;47304;47.456;19.160;2023-02-18T10:28:14;3.90;;;1.40;;
61435;SDS011;47304;47.456;19.160;2023-02-18T10:30:41;1.30;;;1.00;;
61435;SDS011;47304;47.456;19.160;2023-02-18T10:46:52;3.70;;;1.30;;
61435;SDS011;47304;47.456;19.160;2023-02-18T10:52:22;2.10;;;1.10;;
61435;SDS011;47304;47.456;19.160;2023-02-18T10:57:27;2.90;;;1.40;;
61435;SDS011;47304;47.456;19.160;2023-02-18T10:59:55;1.80;;;1.30;;
61435;SDS011;47304;47.456;19.160;2023-02-18T11:02:40;3.80;;;1.60;;
61435;SDS011;47304;47.456;19.160;2023-02-18T11:05:23;2.30;;;1.30;;
61435;SDS011;47304;47.456;19.160;2023-02-18T11:07:53;1.80;;;1.20;;
61435;SDS011;47304;47.456;19.160;2023-02-18T11:10:23;4.90;;;1.80;;
61435;SDS011;47304;47.456;19.160;2023-02-18T11:12:56;3.20;;;1.60;;
61435;SDS011;47304;47.456;19.160;2023-02-18T11:15:32;2.30;;;1.10;;
61435;SDS011;47304;47.456;19.160;2023-02-18T11:18:12;1.60;;;1.10;;
61435;SDS011;47304;47.456;19.160;2023-02-18T11:21:01;3.90;;;1.60;;
61435;SDS011;47304;47.456;19.160;2023-02-18T11:23:47;3.00;;;1.60;;
61435;SDS011;47304;47.456;19.160;2023-02-18T11:26:17;2.60;;;1.40;;
61435;SDS011;47304;47.456;19.160;2023-02-18T11:28:59;4.70;;;1.60;;
61435;SDS011;47304;47.456;19.160;2023-02-18T11:34:48;2.70;;;1.30;;
61435;SDS011;47304;47.456;19.160;2023-02-18T11:37:09;3.80;;;1.50;;
61435;SDS011;47304;47.456;19.160;2023-02-18T11:39:42;4.50;;;1.70;;
61435;SDS011;47304;47.456;19.160;2023-02-18T11:42:12;2.70;;;1.40;;
61435;SDS011;47304;47.456;19.160;2023-02-18T11:44:41;3.20;;;1.50;;
61435;SDS011;47304;47.456;19.160;2023-02-18T11:49:40;3.40;;;1.60;;
61435;SDS011;47304;47.456;19.160;2023-02-18T11:55:02;4.90;;;1.80;;
61435;SDS011;47304;47.456;19.160;2023-02-18T11:57:30;4.60;;;2.00;;
61435;SDS011;47304;47.456;19.160;2023-02-18T11:59:59;6.00;;;2.00;;
61435;SDS011;47304;47.456;19.160;2023-02-18T12:02:31;2.90;;;1.50;;
61435;SDS011;47304;47.456;19.160;2023-02-18T12:07:46;2.70;;;1.50;;
61435;SDS011;47304;47.456;19.160;2023-02-18T12:10:22;3.80;;;1.80;;
61435;SDS011;47304;47.456;19.160;2023-02-18T12:13:00;4.70;;;1.90;;
61435;SDS011;47304;47.456;19.160;2023-02-18T12:15:31;3.40;;;1.80;;
61435;SDS011;47304;47.456;19.160;2023-02-18T12:26:14;4.50;;;2.20;;
61435;SDS011;47304;47.456;19.160;2023-02-18T12:34:41;5.00;;;1.90;;
61435;SDS011;47304;47.456;19.160;2023-02-18T12:40:03;5.90;;;2.10;;
61435;SDS011;47304;47.456;19.160;2023-02-18T12:56:18;2.10;;;1.30;;
61435;SDS011;47304;47.456;19.160;2023-02-18T13:02:16;3.30;;;1.50;;
61435;SDS011;47304;47.456;19.160;2023-02-18T13:13:02;2.10;;;1.20;;
61435;SDS011;47304;47.456;19.160;2023-02-18T13:15:37;3.00;;;1.20;;
61435;SDS011;47304;47.456;19.160;2023-02-18T13:18:12;1.90;;;1.30;;
61435;SDS011;47304;47.456;19.160;2023-02-18T13:20:54;3.00;;;1.40;;
61435;SDS011;47304;47.456;19.160;2023-02-18T13:23:24;1.60;;;1.20;;
61435;SDS011;47304;47.456;19.160;2023-02-18T13:26:01;3.60;;;1.30;;
61435;SDS011;47304;47.456;19.160;2023-02-18T13:34:31;2.30;;;1.10;;
61435;SDS011;47304;47.456;19.160;2023-02-18T13:39:37;2.70;;;1.30;;
61435;SDS011;47304;47.456;19.160;2023-02-18T13:42:35;1.50;;;1.00;;
61435;SDS011;47304;47.456;19.160;2023-02-18T13:45:21;1.60;;;1.00;;
61435;SDS011;47304;47.456;19.160;2023-02-18T13:47:48;1.40;;;1.00;;
61435;SDS011;47304;47.456;19.160;2023-02-18T13:52:48;3.30;;;1.30;;
61435;SDS011;47304;47.456;19.160;2023-02-18T13:55:19;1.40;;;1.00;;
61435;SDS011;47304;47.456;19.160;2023-02-18T13:57:50;2.30;;;1.10;;
61435;SDS011;47304;47.456;19.160;2023-02-18T14:00:21;7.50;;;2.60;;
61435;SDS011;47304;47.456;19.160;2023-02-18T14:02:59;5.30;;;2.10;;
61435;SDS011;47304;47.456;19.160;2023-02-18T14:05:42;2.40;;;1.20;;
61435;SDS011;47304;47.456;19.160;2023-02-18T14:13:42;1.20;;;1.00;;
61435;SDS011;47304;47.456;19.160;2023-02-18T14:16:14;1.50;;;0.90;;
61435;SDS011;47304;47.456;19.160;2023-02-18T14:26:05;3.60;;;1.40;;
61435;SDS011;47304;47.456;19.160;2023-02-18T14:28:39;2.20;;;1.30;;
61435;SDS011;47304;47.456;19.160;2023-02-18T14:33:40;3.00;;;1.40;;
61435;SDS011;47304;47.456;19.160;2023-02-18T14:41:57;2.70;;;1.10;;
61435;SDS011;47304;47.456;19.160;2023-02-18T14:50:42;6.50;;;2.80;;
61435;SDS011;47304;47.456;19.160;2023-02-18T14:53:12;16.30;;;9.00;;
61435;SDS011;47304;47.456;19.160;2023-02-18T14:55:43;21.10;;;12.00;;
61435;SDS011;47304;47.456;19.160;2023-02-18T15:00:42;22.20;;;13.50;;
61435;SDS011;47304;47.456;19.160;2023-02-18T15:03:13;20.90;;;12.80;;
61435;SDS011;47304;47.456;19.160;2023-02-18T15:05:42;20.90;;;12.80;;
61435;SDS011;47304;47.456;19.160;2023-02-18T15:08:17;21.20;;;13.00;;
61435;SDS011;47304;47.456;19.160;2023-02-18T15:10:58;22.70;;;12.90;;
61435;SDS011;47304;47.456;19.160;2023-02-18T15:15:58;25.30;;;15.30;;
61435;SDS011;47304;47.456;19.160;2023-02-18T15:18:33;28.10;;;16.80;;
61435;SDS011;47304;47.456;19.160;2023-02-18T15:23:27;24.20;;;14.30;;
61435;SDS011;47304;47.456;19.160;2023-02-18T15:25:55;29.40;;;18.60;;
61435;SDS011;47304;47.456;19.160;2023-02-18T15:28:24;34.90;;;21.00;;
61435;SDS011;47304;47.456;19.160;2023-02-18T15:30:54;26.80;;;15.30;;
61435;SDS011;47304;47.456;19.160;2023-02-18T15:33:26;28.80;;;16.70;;
61435;SDS011;47304;47.456;19.160;2023-02-18T15:36:00;29.80;;;16.50;;
61435;SDS011;47304;47.456;19.160;2023-02-18T15:38:31;31.50;;;18.50;;
61435;SDS011;47304;47.456;19.160;2023-02-18T15:40:58;33.70;;;20.00;;
61435;SDS011;47304;47.456;19.160;2023-02-18T15:43:26;31.70;;;19.70;;
61435;SDS011;47304;47.456;19.160;2023-02-18T15:45:55;34.40;;;20.70;;
61435;SDS011;47304;47.456;19.160;2023-02-18T15:48:34;35.10;;;20.20;;
61435;SDS011;47304;47.456;19.160;2023-02-18T15:51:11;33.10;;;18.80;;
61435;SDS011;47304;47.456;19.160;2023-02-18T15:53:44;31.00;;;18.20;;
61435;SDS011;47304;47.456;19.160;2023-02-18T15:56:14;32.20;;;17.40;;
61435;SDS011;47304;47.456;19.160;2023-02-18T15:58:46;31.90;;;19.50;;
61435;SDS011;47304;47.456;19.160;2023-02-18T16:01:24;36.90;;;22.30;;
61435;SDS011;47304;47.456;19.160;2023-02-18T16:03:53;38.80;;;21.80;;
61435;SDS011;47304;47.456;19.160;2023-02-18T16:06:22;36.50;;;21.40;;
61435;SDS011;47304;47.456;19.160;2023-02-18T16:09:01;40.00;;;22.50;;
61435;SDS011;47304;47.456;19.160;2023-02-18T16:11:33;35.40;;;20.10;;
61435;SDS011;47304;47.456;19.160;2023-02-18T16:14:02;39.60;;;23.30;;
61435;SDS011;47304;47.456;19.160;2023-02-18T16:16:30;38.30;;;23.90;;
61435;SDS011;47304;47.456;19.160;2023-02-18T16:18:59;41.00;;;24.30;;
61435;SDS011;47304;47.456;19.160;2023-02-18T16:21:37;40.30;;;23.00;;
61435;SDS011;47304;47.456;19.160;2023-02-18T16:24:24;37.90;;;21.60;;
61435;SDS011;47304;47.456;19.160;2023-02-18T16:26:53;42.50;;;22.00;;
61435;SDS011;47304;47.456;19.160;2023-02-18T16:29:24;44.70;;;25.40;;
61435;SDS011;47304;47.456;19.160;2023-02-18T16:31:52;46.10;;;26.40;;
61435;SDS011;47304;47.456;19.160;2023-02-18T16:34:18;42.30;;;25.10;;
61435;SDS011;47304;47.456;19.160;2023-02-18T16:36:45;45.90;;;25.90;;
61435;SDS011;47304;47.456;19.160;2023-02-18T16:39:11;44.30;;;24.00;;
61435;SDS011;47304;47.456;19.160;2023-02-18T16:41:38;38.70;;;22.70;;
61435;SDS011;47304;47.456;19.160;2023-02-18T16:44:09;40.90;;;23.10;;
61435;SDS011;47304;47.456;19.160;2023-02-18T16:46:38;39.90;;;23.60;;
61435;SDS011;47304;47.456;19.160;2023-02-18T16:49:04;43.60;;;23.60;;
61435;SDS011;47304;47.456;19.160;2023-02-18T16:51:31;46.00;;;27.50;;
61435;SDS011;47304;47.456;19.160;2023-02-18T16:54:00;53.20;;;27.20;;
61435;SDS011;47304;47.456;19.160;2023-02-18T16:56:28;49.30;;;26.20;;
61435;SDS011;47304;47.456;19.160;2023-02-18T16:58:57;49.30;;;26.50;;
61435;SDS011;47304;47.456;19.160;2023-02-18T17:01:30;49.60;;;27.70;;
61435;SDS011;47304;47.456;19.160;2023-02-18T17:04:01;49.60;;;26.60;;
61435;SDS011;47304;47.456;19.160;2023-02-18T17:06:28;48.30;;;27.20;;
61435;SDS011;47304;47.456;19.160;2023-02-18T17:08:55;48.80;;;26.90;;
61435;SDS011;47304;47.456;19.160;2023-02-18T17:11:22;47.60;;;26.20;;
61435;SDS011;47304;47.456;19.160;2023-02-18T17:13:51;50.00;;;27.50;;
61435;SDS011;47304;47.456;19.160;2023-02-18T17:16:20;50.00;;;27.80;;
61435;SDS011;47304;47.456;19.160;2023-02-18T17:18:47;52.00;;;28.30;;
61435;SDS011;47304;47.456;19.160;2023-02-18T17:21:14;51.50;;;29.50;;
61435;SDS011;47304;47.456;19.160;2023-02-18T17:23:42;48.70;;;27.20;;